Time,TemperatureF,DewpointF,PressureIn,WindDirection,WindDirectionDegrees,WindSpeedMPH,WindSpeedGustMPH,Humidity,HourlyPrecipIn,Conditions,Clouds,dailyrainin,SoftwareType,DateUTC
2013-04-05 00:00:00,66.2,62.9,29.86,SW,225,0.0,0.0,89,0.00,BKN,,0.47,WeatherDisplay:10.37,2013-04-05 04:00:00,
2013-04-05 00:02:00,66.0,63.0,29.86,SW,225,0.0,0.0,90,0.00,RA,,0.00,WeatherDisplay:10.37,2013-04-05 04:02:00,
2013-04-05 00:07:00,65.8,62.8,29.86,SW,225,0.0,0.0,90,0.00,RA,,0.00,WeatherDisplay:10.37,2013-04-05 04:07:00,
2013-04-05 00:12:00,65.8,62.8,29.86,SW,225,0.0,0.0,90,0.00,BKN,,0.00,WeatherDisplay:10.37,2013-04-05 04:12:00,
2013-04-05 00:17:00,65.8,62.8,29.86,SW,225,0.0,0.0,90,0.00,BKN,,0.00,WeatherDisplay:10.37,2013-04-05 04:17:00,
2013-04-05 00:22:00,65.5,62.5,29.86,SW,225,0.0,0.0,90,0.00,BKN,,0.00,WeatherDisplay:10.37,2013-04-05 04:22:00,
2013-04-05 00:27:00,65.1,62.4,29.85,SW,225,0.0,0.0,91,0.00,BKN,,0.00,WeatherDisplay:10.37,2013-04-05 04:27:00,
2013-04-05 00:32:00,65.1,62.4,29.85,SW,225,0.0,0.0,91,0.00,BKN,,0.00,WeatherDisplay:10.37,2013-04-05 04:32:00,
2013-04-05 00:37:00,64.9,62.2,29.85,SW,225,0.0,0.0,91,0.00,BKN,,0.00,WeatherDisplay:10.37,2013-04-05 04:37:00,
2013-04-05 00:42:00,64.9,62.2,29.85,SW,225,0.0,0.0,91,0.00,BKN,,0.00,WeatherDisplay:10.37,2013-04-05 04:42:00,
2013-04-05 00:47:00,64.8,62.4,29.85,SW,225,0.0,0.0,92,0.00,BKN,,0.00,WeatherDisplay:10.37,2013-04-05 04:47:00,
2013-04-05 00:52:00,64.6,62.2,29.85,SW,225,0.0,0.0,92,0.00,BKN,,0.00,WeatherDisplay:10.37,2013-04-05 04:52:00,
2013-04-05 00:57:00,64.6,62.2,29.85,SW,225,0.0,0.0,92,0.00,BKN,,0.00,WeatherDisplay:10.37,2013-04-05 04:57:00,
2013-04-05 01:02:00,64.6,62.2,29.85,SW,225,0.0,0.0,92,0.00,BKN,,0.00,WeatherDisplay:10.37,2013-04-05 05:02:00,
2013-04-05 01:07:00,64.6,62.2,29.84,SW,225,0.0,0.0,92,0.00,BKN,,0.00,WeatherDisplay:10.37,2013-04-05 05:07:00,
2013-04-05 01:12:00,64.4,62.0,29.85,SW,225,0.0,0.0,92,0.00,BKN,,0.00,WeatherDisplay:10.37,2013-04-05 05:12:00,
2013-04-05 01:17:00,64.4,62.0,29.85,SW,225,0.0,0.0,92,0.00,BKN,,0.00,WeatherDisplay:10.37,2013-04-05 05:17:00,
2013-04-05 01:22:00,64.4,62.0,29.85,SW,225,0.0,0.0,92,0.00,BKN,,0.00,WeatherDisplay:10.37,2013-04-05 05:22:00,
2013-04-05 01:27:00,64.4,62.0,29.85,SW,225,0.0,0.0,92,0.00,BKN,,0.00,WeatherDisplay:10.37,2013-04-05 05:27:00,
2013-04-05 01:32:00,64.6,62.5,29.85,SW,225,0.0,0.0,93,0.00,BKN,,0.00,WeatherDisplay:10.37,2013-04-05 05:32:00,
2013-04-05 01:37:00,64.6,62.5,29.86,SW,225,0.0,0.0,93,0.00,BKN,,0.00,WeatherDisplay:10.37,2013-04-05 05:37:00,
2013-04-05 01:42:00,64.6,62.5,29.86,SW,225,0.0,0.0,93,0.00,BKN,,0.00,WeatherDisplay:10.37,2013-04-05 05:42:00,
2013-04-05 01:47:00,64.6,62.5,29.85,SW,225,0.0,0.0,93,0.00,BKN,,0.00,WeatherDisplay:10.37,2013-04-05 05:47:00,
2013-04-05 01:52:00,64.6,62.5,29.84,SW,225,0.0,0.0,93,0.00,BKN,,0.00,WeatherDisplay:10.37,2013-04-05 05:52:00,
2013-04-05 01:57:00,64.6,62.5,29.85,SW,225,0.0,0.0,93,0.00,BKN,,0.00,WeatherDisplay:10.37,2013-04-05 05:57:00,
2013-04-05 02:02:00,64.6,62.5,29.85,SW,225,0.0,0.0,93,0.00,BKN,,0.00,WeatherDisplay:10.37,2013-04-05 06:02:00,
2013-04-05 02:07:00,64.6,62.5,29.85,SW,225,0.0,0.0,93,0.00,BKN,,0.00,WeatherDisplay:10.37,2013-04-05 06:07:00,
2013-04-05 02:13:00,64.6,62.5,29.84,SW,225,0.0,0.0,93,0.00,BKN,,0.00,WeatherDisplay:10.37,2013-04-05 06:13:00,
2013-04-05 02:17:00,64.8,62.7,29.85,SW,225,0.0,0.0,93,0.00,BKN,,0.00,WeatherDisplay:10.37,2013-04-05 06:17:00,
2013-04-05 02:23:00,64.8,62.7,29.85,SW,225,0.0,0.0,93,0.00,BKN,,0.00,WeatherDisplay:10.37,2013-04-05 06:23:00,
2013-04-05 02:28:00,64.8,62.7,29.85,SW,225,0.0,0.0,93,0.00,BKN,,0.00,WeatherDisplay:10.37,2013-04-05 06:28:00,
2013-04-05 02:33:00,64.8,62.7,29.84,SW,225,0.0,0.0,93,0.00,BKN,,0.00,WeatherDisplay:10.37,2013-04-05 06:33:00,
2013-04-05 02:38:00,64.8,62.7,29.84,SW,225,0.0,0.0,93,0.00,BKN,,0.00,WeatherDisplay:10.37,2013-04-05 06:38:00,
2013-04-05 02:43:00,64.8,62.7,29.84,SW,225,0.0,0.0,93,0.00,BKN,,0.00,WeatherDisplay:10.37,2013-04-05 06:43:00,
2013-04-05 02:48:00,64.8,62.7,29.83,SW,225,0.0,0.0,93,0.00,BKN,,0.00,WeatherDisplay:10.37,2013-04-05 06:48:00,
2013-04-05 02:53:00,64.6,62.5,29.83,SW,225,0.0,0.0,93,0.00,BKN,,0.00,WeatherDisplay:10.37,2013-04-05 06:53:00,
2013-04-05 02:58:00,64.6,62.5,29.83,SW,225,0.0,0.0,93,0.00,BKN,,0.00,WeatherDisplay:10.37,2013-04-05 06:58:00,
2013-04-05 03:03:00,64.6,62.5,29.83,SW,225,0.0,0.0,93,0.00,BKN,,0.00,WeatherDisplay:10.37,2013-04-05 07:03:00,
2013-04-05 03:08:00,64.4,62.3,29.83,SW,225,0.0,0.0,93,0.00,BKN,,0.00,WeatherDisplay:10.37,2013-04-05 07:08:00,
2013-04-05 03:13:00,64.4,62.3,29.83,SW,225,0.0,0.0,93,0.00,BKN,,0.00,WeatherDisplay:10.37,2013-04-05 07:13:00,
2013-04-05 03:18:00,64.4,62.3,29.81,SW,225,0.0,0.0,93,0.00,BKN,,0.00,WeatherDisplay:10.37,2013-04-05 07:18:00,
2013-04-05 03:23:00,64.4,62.3,29.81,SW,225,0.0,0.0,93,0.00,BKN,,0.00,WeatherDisplay:10.37,2013-04-05 07:23:00,
2013-04-05 03:28:00,64.4,62.6,29.81,SW,225,0.0,0.0,94,0.00,BKN,,0.00,WeatherDisplay:10.37,2013-04-05 07:28:00,
2013-04-05 03:33:00,64.2,62.5,29.82,SW,225,0.0,0.0,94,0.00,BKN,,0.00,WeatherDisplay:10.37,2013-04-05 07:33:00,
2013-04-05 03:37:00,64.0,62.3,29.81,SW,225,0.0,0.0,94,0.00,BKN,,0.00,WeatherDisplay:10.37,2013-04-05 07:37:00,
2013-04-05 03:42:00,64.0,62.3,29.80,SW,225,0.0,0.0,94,0.00,BKN,,0.00,WeatherDisplay:10.37,2013-04-05 07:42:00,
2013-04-05 03:47:00,64.0,62.3,29.80,SW,225,0.0,0.0,94,0.00,BKN,,0.00,WeatherDisplay:10.37,2013-04-05 07:47:00,
2013-04-05 03:52:00,64.0,62.3,29.80,SW,225,0.0,0.0,94,0.00,BKN,,0.00,WeatherDisplay:10.37,2013-04-05 07:52:00,
2013-04-05 03:57:00,64.0,62.3,29.80,SW,225,0.0,0.0,94,0.00,BKN,,0.00,WeatherDisplay:10.37,2013-04-05 07:57:00,
2013-04-05 04:02:00,64.0,62.6,29.80,SW,225,0.0,0.0,95,0.00,BKN,,0.00,WeatherDisplay:10.37,2013-04-05 08:02:00,
2013-04-05 04:08:00,64.0,62.6,29.80,SW,225,0.0,0.0,95,0.00,BKN,,0.00,WeatherDisplay:10.37,2013-04-05 08:08:00,
2013-04-05 04:13:00,64.0,62.6,29.80,SW,225,0.0,0.0,95,0.00,BKN,,0.00,WeatherDisplay:10.37,2013-04-05 08:13:00,
2013-04-05 04:18:00,64.0,62.6,29.80,SW,225,0.0,0.0,95,0.00,BKN,,0.00,WeatherDisplay:10.37,2013-04-05 08:18:00,
2013-04-05 04:23:00,64.0,62.6,29.80,SW,225,0.0,0.0,95,0.00,BKN,,0.00,WeatherDisplay:10.37,2013-04-05 08:23:00,
2013-04-05 04:28:00,64.0,62.6,29.79,SW,225,0.0,0.0,95,0.00,BKN,,0.00,WeatherDisplay:10.37,2013-04-05 08:28:00,
2013-04-05 04:33:00,64.0,62.6,29.79,SW,225,0.0,0.0,95,0.00,BKN,,0.00,WeatherDisplay:10.37,2013-04-05 08:33:00,
2013-04-05 04:38:00,64.0,62.6,29.79,SW,225,0.0,0.0,95,0.00,BKN,,0.00,WeatherDisplay:10.37,2013-04-05 08:38:00,
2013-04-05 04:43:00,64.0,62.6,29.78,SW,225,0.0,0.0,95,0.00,BKN,,0.00,WeatherDisplay:10.37,2013-04-05 08:43:00,
2013-04-05 04:48:00,64.0,62.6,29.78,SW,225,0.0,0.0,95,0.00,BKN,,0.00,WeatherDisplay:10.37,2013-04-05 08:48:00,
2013-04-05 04:53:00,64.0,62.6,29.78,SW,225,0.0,0.0,95,0.00,BKN,,0.00,WeatherDisplay:10.37,2013-04-05 08:53:00,
2013-04-05 04:58:00,64.0,62.6,29.78,SW,225,0.0,0.0,95,0.00,BKN,,0.00,WeatherDisplay:10.37,2013-04-05 08:58:00,
2013-04-05 05:03:00,64.0,62.6,29.78,SW,225,0.0,0.0,95,0.00,BKN,,0.00,WeatherDisplay:10.37,2013-04-05 09:03:00,
2013-04-05 05:08:00,63.7,61.9,29.77,SW,225,0.0,0.0,94,0.00,BKN,,0.00,WeatherDisplay:10.37,2013-04-05 09:08:00,
2013-04-05 05:13:00,63.7,61.9,29.77,SW,225,0.0,0.0,94,0.00,BKN,,0.00,WeatherDisplay:10.37,2013-04-05 09:13:00,
2013-04-05 05:15:00,63.5,61.7,29.77,SW,225,0.0,0.0,94,0.00,BKN,,0.00,WeatherDisplay:10.37,2013-04-05 09:15:00,
2013-04-05 05:18:00,63.5,61.7,29.77,SW,225,0.0,0.0,94,0.00,BKN,,0.00,WeatherDisplay:10.37,2013-04-05 09:18:00,
2013-04-05 05:23:00,63.5,61.7,29.77,SW,225,0.0,0.0,94,0.00,BKN,,0.00,WeatherDisplay:10.37,2013-04-05 09:23:00,
2013-04-05 05:36:00,63.0,61.5,29.76,SW,225,0.0,0.0,95,0.00,BKN,,0.00,WeatherDisplay:10.37,2013-04-05 09:36:00,
2013-04-05 05:41:00,63.0,61.5,29.76,SW,225,0.0,0.0,95,0.00,BKN,,0.00,WeatherDisplay:10.37,2013-04-05 09:41:00,
2013-04-05 05:46:00,63.0,61.5,29.76,SW,225,0.0,0.0,95,0.00,BKN,,0.00,WeatherDisplay:10.37,2013-04-05 09:46:00,
2013-04-05 05:51:00,63.0,61.5,29.76,SW,225,0.0,0.0,95,0.00,BKN,,0.00,WeatherDisplay:10.37,2013-04-05 09:51:00,
2013-04-05 05:56:00,63.0,61.8,29.76,SW,225,0.0,0.0,96,0.00,BKN,,0.00,WeatherDisplay:10.37,2013-04-05 09:56:00,
2013-04-05 06:01:00,63.1,62.0,29.76,SW,225,0.0,0.0,96,0.00,OVC,,0.00,WeatherDisplay:10.37,2013-04-05 10:01:00,
2013-04-05 06:07:00,63.1,62.0,29.77,SW,225,0.0,0.0,96,0.00,OVC,,0.00,WeatherDisplay:10.37,2013-04-05 10:07:00,
2013-04-05 06:12:00,63.1,62.0,29.77,SW,225,0.0,0.0,96,0.00,OVC,,0.00,WeatherDisplay:10.37,2013-04-05 10:12:00,
2013-04-05 06:17:00,63.3,62.2,29.77,SW,225,0.0,0.0,96,0.00,OVC,,0.00,WeatherDisplay:10.37,2013-04-05 10:17:00,
2013-04-05 06:22:00,63.3,62.2,29.77,West,270,0.0,0.0,96,0.00,OVC,,0.00,WeatherDisplay:10.37,2013-04-05 10:22:00,
2013-04-05 06:27:00,63.5,62.0,29.77,West,270,0.0,0.0,95,0.00,OVC,,0.00,WeatherDisplay:10.37,2013-04-05 10:27:00,
2013-04-05 06:32:00,63.5,62.3,29.78,West,270,0.0,0.0,96,0.00,OVC,,0.00,WeatherDisplay:10.37,2013-04-05 10:32:00,
2013-04-05 06:37:00,63.5,62.3,29.79,West,270,0.0,0.0,96,0.00,OVC,,0.00,WeatherDisplay:10.37,2013-04-05 10:37:00,
2013-04-05 06:42:00,63.7,62.5,29.79,West,270,0.0,0.0,96,0.00,OVC,,0.00,WeatherDisplay:10.37,2013-04-05 10:42:00,
2013-04-05 06:47:00,63.7,62.5,29.79,West,270,0.0,0.0,96,0.00,OVC,,0.00,WeatherDisplay:10.37,2013-04-05 10:47:00,
2013-04-05 06:52:00,63.9,62.7,29.80,West,270,0.0,0.0,96,0.00,OVC,,0.00,WeatherDisplay:10.37,2013-04-05 10:52:00,
2013-04-05 06:57:00,64.0,62.6,29.81,West,270,0.0,0.0,95,0.00,OVC,,0.00,WeatherDisplay:10.37,2013-04-05 10:57:00,
2013-04-05 07:02:00,64.0,62.6,29.81,West,270,0.0,0.0,95,0.00,OVC,,0.00,WeatherDisplay:10.37,2013-04-05 11:02:00,
2013-04-05 07:07:00,64.2,62.8,29.81,West,270,0.0,0.0,95,0.00,OVC,,0.00,WeatherDisplay:10.37,2013-04-05 11:07:00,
2013-04-05 07:12:00,64.2,62.8,29.81,West,270,0.0,0.0,95,0.00,OVC,,0.00,WeatherDisplay:10.37,2013-04-05 11:12:00,
2013-04-05 07:17:00,64.2,62.8,29.81,West,270,0.0,0.0,95,0.00,OVC,,0.00,WeatherDisplay:10.37,2013-04-05 11:17:00,
2013-04-05 07:22:00,64.4,62.9,29.82,North,0,1.6,2.8,95,0.00,-RA,,0.00,WeatherDisplay:10.37,2013-04-05 11:22:00,
2013-04-05 07:27:00,63.7,61.9,29.82,North,0,2.7,6.9,94,0.00,-RA,,0.00,WeatherDisplay:10.37,2013-04-05 11:27:00,
2013-04-05 07:32:00,63.7,61.9,29.82,North,0,2.7,6.9,94,0.00,-RA,,0.00,WeatherDisplay:10.37,2013-04-05 11:32:00,
2013-04-05 07:37:00,62.4,60.7,29.82,North,0,0.3,4.6,94,0.00,OVC,,0.00,WeatherDisplay:10.37,2013-04-05 11:37:00,
2013-04-05 07:42:00,62.2,60.5,29.84,NE,45,2.6,10.4,94,0.00,-RA,,0.00,WeatherDisplay:10.37,2013-04-05 11:42:00,
2013-04-05 07:47:00,62.2,60.5,29.84,NE,45,1.9,10.4,94,0.00,-RA,,0.00,WeatherDisplay:10.37,2013-04-05 11:47:00,
2013-04-05 07:52:00,61.3,59.6,29.85,North,0,1.1,2.8,94,0.00,OVC,,0.00,WeatherDisplay:10.37,2013-04-05 11:52:00,
2013-04-05 07:57:00,61.2,59.4,29.84,NE,45,2.7,4.6,94,0.00,OVC,,0.00,WeatherDisplay:10.37,2013-04-05 11:57:00,
2013-04-05 08:02:00,61.0,59.2,29.83,NE,45,1.1,5.8,94,0.00,OVC,,0.00,WeatherDisplay:10.37,2013-04-05 12:02:00,
2013-04-05 08:07:00,60.6,59.2,29.85,NW,315,2.1,5.8,95,0.00,OVC,,0.00,WeatherDisplay:10.37,2013-04-05 12:07:00,
2013-04-05 08:12:00,60.4,59.0,29.85,NE,45,0.9,4.6,95,0.00,OVC,,0.00,WeatherDisplay:10.37,2013-04-05 12:12:00,
2013-04-05 08:17:00,60.4,59.0,29.84,NE,45,0.5,4.6,95,0.00,OVC,,0.00,WeatherDisplay:10.37,2013-04-05 12:17:00,
2013-04-05 08:22:00,60.4,59.0,29.84,NE,45,0.9,8.1,95,0.00,OVC,,0.00,WeatherDisplay:10.37,2013-04-05 12:22:00,
2013-04-05 08:27:00,60.1,58.6,29.84,North,0,1.0,8.1,95,0.00,OVC,,0.00,WeatherDisplay:10.37,2013-04-05 12:27:00,
2013-04-05 08:32:00,60.1,58.6,29.84,North,0,0.9,2.3,95,0.00,OVC,,0.00,WeatherDisplay:10.37,2013-04-05 12:32:00,
2013-04-05 08:37:00,60.1,58.6,29.85,East,90,0.9,4.6,95,0.00,OVC,,0.00,WeatherDisplay:10.37,2013-04-05 12:37:00,
2013-04-05 08:42:00,60.1,58.6,29.85,NE,45,3.0,5.8,95,0.00,OVC,,0.00,WeatherDisplay:10.37,2013-04-05 12:42:00,
2013-04-05 08:47:00,59.9,58.5,29.86,NE,45,2.6,5.8,95,0.00,OVC,,0.00,WeatherDisplay:10.37,2013-04-05 12:47:00,
2013-04-05 08:52:00,59.9,58.5,29.86,NE,45,0.0,2.3,95,0.00,OVC,,0.00,WeatherDisplay:10.37,2013-04-05 12:52:00,
2013-04-05 08:57:00,59.9,58.5,29.86,East,90,0.0,0.0,95,0.00,OVC,,0.00,WeatherDisplay:10.37,2013-04-05 12:57:00,
2013-04-05 09:02:00,60.1,58.6,29.86,East,90,2.2,4.6,95,0.00,-RA,,0.00,WeatherDisplay:10.37,2013-04-05 13:02:00,
2013-04-05 09:07:00,59.9,58.5,29.85,NE,45,1.0,8.1,95,0.00,-RA,,0.00,WeatherDisplay:10.37,2013-04-05 13:07:00,
2013-04-05 09:12:00,59.9,58.2,29.85,East,90,1.8,5.8,94,0.00,-RA,,0.00,WeatherDisplay:10.37,2013-04-05 13:12:00,
2013-04-05 09:17:00,59.9,58.2,29.85,NE,45,1.4,5.8,94,0.00,-RA,,0.00,WeatherDisplay:10.37,2013-04-05 13:17:00,
2013-04-05 09:22:00,60.1,58.3,29.85,NE,45,1.0,4.6,94,0.00,-RA,,0.00,WeatherDisplay:10.37,2013-04-05 13:22:00,
2013-04-05 09:27:00,60.4,58.4,29.85,NE,45,0.7,4.6,93,0.00,-RA,,0.00,WeatherDisplay:10.37,2013-04-05 13:27:00,
2013-04-05 09:32:00,61.2,59.1,29.85,NE,45,2.9,6.3,93,0.00,-RA,,0.00,WeatherDisplay:10.37,2013-04-05 13:32:00,
2013-04-05 09:37:00,61.2,58.8,29.85,NE,45,0.0,4.6,92,0.00,-RA,,0.00,WeatherDisplay:10.37,2013-04-05 13:37:00,
2013-04-05 09:42:00,61.5,58.9,29.85,East,90,2.1,5.8,91,0.00,-RA,,0.00,WeatherDisplay:10.37,2013-04-05 13:42:00,
2013-04-05 09:47:00,61.5,58.9,29.85,NE,45,0.9,4.6,91,0.00,-RA,,0.00,WeatherDisplay:10.37,2013-04-05 13:47:00,
2013-04-05 09:52:00,61.5,58.9,29.85,NE,45,1.1,2.3,91,0.00,-RA,,0.00,WeatherDisplay:10.37,2013-04-05 13:52:00,
2013-04-05 09:57:00,61.5,58.9,29.84,NE,45,2.7,5.8,91,0.00,-RA,,0.00,WeatherDisplay:10.37,2013-04-05 13:57:00,
2013-04-05 10:02:00,61.9,59.2,29.84,NE,45,2.7,5.8,91,0.00,OVC,,0.00,WeatherDisplay:10.37,2013-04-05 14:02:00,
2013-04-05 10:07:00,62.2,59.3,29.84,NE,45,2.0,5.8,90,0.00,OVC,,0.00,WeatherDisplay:10.37,2013-04-05 14:07:00,
2013-04-05 10:12:00,62.4,59.4,29.84,NE,45,1.2,2.3,90,0.00,OVC,,0.00,WeatherDisplay:10.37,2013-04-05 14:12:00,
2013-04-05 10:18:00,63.0,59.3,29.85,East,90,0.7,4.2,88,0.00,OVC,,0.00,WeatherDisplay:10.37,2013-04-05 14:18:00,
2013-04-05 10:22:00,62.4,58.8,29.85,NE,45,1.1,4.6,88,0.00,OVC,,0.00,WeatherDisplay:10.37,2013-04-05 14:22:00,
2013-04-05 10:28:00,61.9,58.3,29.86,NE,45,0.3,2.3,88,0.00,OVC,,0.00,WeatherDisplay:10.37,2013-04-05 14:28:00,
2013-04-05 10:34:00,61.7,58.4,29.86,NE,45,1.2,2.8,89,0.00,OVC,,0.00,WeatherDisplay:10.37,2013-04-05 14:34:00,
2013-04-05 10:39:00,61.3,58.4,29.87,NE,45,1.2,5.8,90,0.00,OVC,,0.00,WeatherDisplay:10.37,2013-04-05 14:39:00,
2013-04-05 10:44:00,61.2,58.2,29.87,NE,45,1.0,2.8,90,0.00,OVC,,0.00,WeatherDisplay:10.37,2013-04-05 14:44:00,
2013-04-05 10:50:00,60.6,57.7,29.87,North,0,1.1,2.8,90,0.00,OVC,,0.00,WeatherDisplay:10.37,2013-04-05 14:50:00,
2013-04-05 10:55:00,60.6,57.7,29.87,North,0,1.1,2.8,90,0.00,OVC,,0.00,WeatherDisplay:10.37,2013-04-05 14:55:00,
2013-04-05 11:00:00,60.6,57.7,29.87,North,0,1.1,2.8,90,0.00,OVC,,0.00,WeatherDisplay:10.37,2013-04-05 15:00:00,
2013-04-05 11:05:00,60.6,58.0,29.87,North,0,0.5,4.6,91,0.00,OVC,,0.00,WeatherDisplay:10.37,2013-04-05 15:05:00,
2013-04-05 11:10:00,60.8,58.2,29.87,NE,45,0.7,4.6,91,0.00,OVC,,0.00,WeatherDisplay:10.37,2013-04-05 15:10:00,
2013-04-05 11:15:00,61.2,58.5,29.87,NE,45,1.6,2.8,91,0.00,OVC,,0.00,WeatherDisplay:10.37,2013-04-05 15:15:00,
2013-04-05 11:20:00,61.3,58.7,29.87,NE,45,1.9,4.6,91,0.00,OVC,,0.00,WeatherDisplay:10.37,2013-04-05 15:20:00,
2013-04-05 11:25:00,61.3,58.7,29.87,NE,45,1.9,4.6,91,0.00,OVC,,0.00,WeatherDisplay:10.37,2013-04-05 15:25:00,
2013-04-05 11:30:00,61.3,58.4,29.87,NE,45,1.5,4.6,90,0.00,OVC,,0.00,WeatherDisplay:10.37,2013-04-05 15:30:00,
2013-04-05 11:35:00,61.3,58.7,29.87,West,270,0.4,2.3,91,0.00,OVC,,0.00,WeatherDisplay:10.37,2013-04-05 15:35:00,
2013-04-05 11:40:00,61.2,58.5,29.87,North,0,0.6,5.6,91,0.00,OVC,,0.00,WeatherDisplay:10.37,2013-04-05 15:40:00,
2013-04-05 11:45:00,61.2,58.5,29.87,North,0,1.0,2.8,91,0.00,OVC,,0.00,WeatherDisplay:10.37,2013-04-05 15:45:00,
2013-04-05 11:50:00,60.4,58.1,29.88,North,0,0.5,5.8,92,0.00,-RA,,0.00,WeatherDisplay:10.37,2013-04-05 15:50:00,
2013-04-05 11:55:00,60.4,58.1,29.88,North,0,0.5,5.8,92,0.00,-RA,,0.00,WeatherDisplay:10.37,2013-04-05 15:55:00,
2013-04-05 12:00:00,60.4,58.4,29.88,North,0,0.6,5.6,93,0.00,-RA,,0.00,WeatherDisplay:10.37,2013-04-05 16:00:00,
2013-04-05 12:05:00,60.6,58.6,29.87,North,0,1.0,2.3,93,0.00,-RA,,0.00,WeatherDisplay:10.37,2013-04-05 16:05:00,
2013-04-05 12:10:00,60.6,58.6,29.88,North,0,0.4,5.8,93,0.00,-RA,,0.00,WeatherDisplay:10.37,2013-04-05 16:10:00,
2013-04-05 12:15:00,60.4,58.7,29.88,NW,315,1.5,5.8,94,0.00,-RA,,0.00,WeatherDisplay:10.37,2013-04-05 16:15:00,
2013-04-05 12:20:00,60.4,58.7,29.88,NW,315,1.5,5.8,94,0.00,-RA,,0.00,WeatherDisplay:10.37,2013-04-05 16:20:00,
2013-04-05 12:25:00,60.8,59.1,29.87,North,0,0.1,2.3,94,0.00,-RA,,0.00,WeatherDisplay:10.37,2013-04-05 16:25:00,
2013-04-05 12:30:00,60.8,59.1,29.88,NE,45,0.0,0.0,94,0.02,-RA,,0.02,WeatherDisplay:10.37,2013-04-05 16:30:00,
2013-04-05 12:35:00,60.8,59.1,29.88,NE,45,0.0,0.0,94,0.02,-RA,,0.02,WeatherDisplay:10.37,2013-04-05 16:35:00,
2013-04-05 12:40:00,60.4,58.7,29.87,NE,45,2.1,8.1,94,0.02,-RA,,0.02,WeatherDisplay:10.37,2013-04-05 16:40:00,
2013-04-05 12:45:00,60.4,58.7,29.87,North,0,1.6,8.1,94,0.02,-RA,,0.02,WeatherDisplay:10.37,2013-04-05 16:45:00,
2013-04-05 12:50:00,60.4,58.7,29.87,North,0,1.6,8.1,94,0.02,-RA,,0.02,WeatherDisplay:10.37,2013-04-05 16:50:00,
2013-04-05 12:55:00,60.4,58.7,29.87,North,0,1.7,2.8,94,0.02,-RA,,0.02,WeatherDisplay:10.37,2013-04-05 16:55:00,
2013-04-05 13:01:00,60.4,58.7,29.87,North,0,0.8,2.8,94,0.02,-RA,,0.02,WeatherDisplay:10.37,2013-04-05 17:01:00,
2013-04-05 13:06:00,60.4,58.7,29.87,North,0,0.1,8.1,94,0.02,OVC,,0.02,WeatherDisplay:10.37,2013-04-05 17:06:00,
2013-04-05 13:10:00,60.4,58.7,29.87,North,0,1.7,5.8,94,0.02,OVC,,0.02,WeatherDisplay:10.37,2013-04-05 17:10:00,
2013-04-05 13:15:00,60.4,58.7,29.87,North,0,1.7,5.8,94,0.02,OVC,,0.02,WeatherDisplay:10.37,2013-04-05 17:15:00,
2013-04-05 13:20:00,60.1,58.0,29.87,North,0,1.0,4.6,93,0.02,OVC,,0.02,WeatherDisplay:10.37,2013-04-05 17:20:00,
2013-04-05 13:26:00,60.1,58.0,29.87,North,0,1.0,4.6,93,0.02,OVC,,0.02,WeatherDisplay:10.37,2013-04-05 17:26:00,
2013-04-05 13:31:00,59.5,57.5,29.87,North,0,2.1,5.8,93,0.02,OVC,,0.02,WeatherDisplay:10.37,2013-04-05 17:31:00,
2013-04-05 13:36:00,59.5,57.5,29.87,North,0,2.1,5.8,93,0.02,OVC,,0.02,WeatherDisplay:10.37,2013-04-05 17:36:00,
2013-04-05 13:41:00,58.8,57.1,29.87,NE,45,1.0,5.8,94,0.02,OVC,,0.02,WeatherDisplay:10.37,2013-04-05 17:41:00,
2013-04-05 13:46:00,58.8,57.1,29.87,NE,45,1.0,5.8,94,0.02,OVC,,0.02,WeatherDisplay:10.37,2013-04-05 17:46:00,
2013-04-05 13:51:00,58.6,56.9,29.87,NW,315,2.0,5.8,94,0.02,OVC,,0.02,WeatherDisplay:10.37,2013-04-05 17:51:00,
2013-04-05 13:57:00,58.3,56.6,29.87,North,0,1.4,5.8,94,0.02,OVC,,0.02,WeatherDisplay:10.37,2013-04-05 17:57:00,
2013-04-05 14:02:00,58.3,56.6,29.87,North,0,1.2,4.6,94,0.02,OVC,,0.02,WeatherDisplay:10.37,2013-04-05 18:02:00,
2013-04-05 14:07:00,58.5,56.7,29.86,NE,45,2.4,5.8,94,0.02,OVC,,0.02,WeatherDisplay:10.37,2013-04-05 18:07:00,
2013-04-05 14:12:00,58.3,56.6,29.86,North,0,0.6,8.1,94,0.02,OVC,,0.02,WeatherDisplay:10.37,2013-04-05 18:12:00,
2013-04-05 14:17:00,58.5,56.7,29.86,North,0,1.4,2.8,94,0.00,OVC,,0.02,WeatherDisplay:10.37,2013-04-05 18:17:00,
2013-04-05 14:22:00,58.5,56.7,29.86,North,0,2.6,8.1,94,0.00,OVC,,0.02,WeatherDisplay:10.37,2013-04-05 18:22:00,
2013-04-05 14:27:00,57.9,56.2,29.86,North,0,2.4,10.4,94,0.00,OVC,,0.02,WeatherDisplay:10.37,2013-04-05 18:27:00,
2013-04-05 14:32:00,57.9,56.2,29.87,NE,45,2.5,6.9,94,0.00,OVC,,0.02,WeatherDisplay:10.37,2013-04-05 18:32:00,
2013-04-05 14:38:00,57.6,55.8,29.87,North,0,3.5,15.0,94,0.00,OVC,,0.02,WeatherDisplay:10.37,2013-04-05 18:38:00,
2013-04-05 14:43:00,57.4,55.7,29.87,NW,315,2.2,5.8,94,0.00,OVC,,0.02,WeatherDisplay:10.37,2013-04-05 18:43:00,
2013-04-05 14:48:00,57.0,55.3,29.87,North,0,1.6,5.8,94,0.00,OVC,,0.02,WeatherDisplay:10.37,2013-04-05 18:48:00,
2013-04-05 14:53:00,57.0,55.3,29.87,North,0,1.6,5.8,94,0.00,OVC,,0.02,WeatherDisplay:10.37,2013-04-05 18:53:00,
2013-04-05 14:58:00,57.0,55.0,29.87,North,0,0.1,4.6,93,0.00,OVC,,0.02,WeatherDisplay:10.37,2013-04-05 18:58:00,
2013-04-05 15:03:00,57.0,55.0,29.87,North,0,0.8,4.6,93,0.00,OVC,,0.02,WeatherDisplay:10.37,2013-04-05 19:03:00,
2013-04-05 15:08:00,57.2,55.5,29.87,NW,315,0.0,0.0,94,0.00,OVC,,0.02,WeatherDisplay:10.37,2013-04-05 19:08:00,
2013-04-05 15:13:00,57.2,55.5,29.87,North,0,0.0,0.0,94,0.00,OVC,,0.02,WeatherDisplay:10.37,2013-04-05 19:13:00,
2013-04-05 15:18:00,57.0,55.3,29.87,North,0,0.0,1.1,94,0.00,OVC,,0.02,WeatherDisplay:10.37,2013-04-05 19:18:00,
2013-04-05 15:23:00,56.8,54.8,29.87,North,0,0.2,4.2,93,0.00,OVC,,0.02,WeatherDisplay:10.37,2013-04-05 19:23:00,
2013-04-05 15:28:00,56.8,54.8,29.87,North,0,0.7,5.8,93,0.00,OVC,,0.02,WeatherDisplay:10.37,2013-04-05 19:28:00,
2013-04-05 15:33:00,56.8,54.8,29.87,North,0,1.5,5.8,93,0.00,OVC,,0.02,WeatherDisplay:10.37,2013-04-05 19:33:00,
2013-04-05 15:38:00,56.8,54.5,29.86,NE,45,0.4,5.8,92,0.00,OVC,,0.02,WeatherDisplay:10.37,2013-04-05 19:38:00,
2013-04-05 15:43:00,56.8,54.8,29.86,NW,315,0.4,4.6,93,0.00,OVC,,0.02,WeatherDisplay:10.37,2013-04-05 19:43:00,
2013-04-05 15:48:00,56.8,54.8,29.85,NW,315,1.4,6.9,93,0.00,OVC,,0.02,WeatherDisplay:10.37,2013-04-05 19:48:00,
2013-04-05 15:49:00,56.8,54.8,29.85,North,0,0.4,4.6,93,0.00,OVC,,0.02,WeatherDisplay:10.37,2013-04-05 19:49:00,
2013-04-05 15:53:00,56.8,54.8,29.85,North,0,0.4,4.6,93,0.00,OVC,,0.02,WeatherDisplay:10.37,2013-04-05 19:53:00,
2013-04-05 15:58:00,56.8,54.8,29.85,North,0,0.4,4.6,93,0.00,OVC,,0.02,WeatherDisplay:10.37,2013-04-05 19:58:00,
2013-04-05 16:03:00,56.8,54.8,29.85,North,0,0.4,2.8,93,0.00,OVC,,0.02,WeatherDisplay:10.37,2013-04-05 20:03:00,
2013-04-05 16:08:00,57.2,54.9,29.85,North,0,0.9,4.6,92,0.00,OVC,,0.02,WeatherDisplay:10.37,2013-04-05 20:08:00,
2013-04-05 16:13:00,57.7,55.1,29.85,North,0,0.5,2.8,91,0.00,OVC,,0.02,WeatherDisplay:10.37,2013-04-05 20:13:00,
2013-04-05 16:18:00,58.6,55.7,29.85,North,0,1.3,4.6,90,0.00,OVC,,0.02,WeatherDisplay:10.37,2013-04-05 20:18:00,
2013-04-05 16:23:00,58.6,55.4,29.85,North,0,0.1,5.8,89,0.00,OVC,,0.02,WeatherDisplay:10.37,2013-04-05 20:23:00,
2013-04-05 16:28:00,58.6,55.4,29.85,NW,315,0.4,2.8,89,0.00,OVC,,0.02,WeatherDisplay:10.37,2013-04-05 20:28:00,
2013-04-05 16:33:00,58.3,55.1,29.85,North,0,2.0,4.6,89,0.00,OVC,,0.02,WeatherDisplay:10.37,2013-04-05 20:33:00,
2013-04-05 16:38:00,58.3,55.1,29.85,North,0,0.4,2.3,89,0.00,OVC,,0.02,WeatherDisplay:10.37,2013-04-05 20:38:00,
2013-04-05 16:43:00,58.3,55.1,29.86,NW,315,0.9,4.6,89,0.00,OVC,,0.02,WeatherDisplay:10.37,2013-04-05 20:43:00,
2013-04-05 16:48:00,58.3,55.1,29.86,North,0,1.0,2.3,89,0.00,OVC,,0.02,WeatherDisplay:10.37,2013-04-05 20:48:00,
2013-04-05 16:53:00,58.1,55.2,29.86,West,270,0.2,2.8,90,0.00,OVC,,0.02,WeatherDisplay:10.37,2013-04-05 20:53:00,
2013-04-05 16:58:00,58.1,54.9,29.86,North,0,0.5,5.8,89,0.00,OVC,,0.02,WeatherDisplay:10.37,2013-04-05 20:58:00,
2013-04-05 17:04:00,58.3,55.1,29.86,North,0,0.8,2.8,89,0.00,OVC,,0.02,WeatherDisplay:10.37,2013-04-05 21:04:00,
2013-04-05 17:09:00,58.6,55.4,29.85,North,0,1.1,4.2,89,0.00,OVC,,0.02,WeatherDisplay:10.37,2013-04-05 21:09:00,
2013-04-05 17:14:00,58.6,55.4,29.85,North,0,2.0,4.6,89,0.00,OVC,,0.02,WeatherDisplay:10.37,2013-04-05 21:14:00,
2013-04-05 17:19:00,58.6,55.4,29.86,NW,315,1.0,5.8,89,0.00,OVC,,0.02,WeatherDisplay:10.37,2013-04-05 21:19:00,
2013-04-05 17:25:00,58.6,55.4,29.85,NW,315,1.4,5.6,89,0.00,OVC,,0.02,WeatherDisplay:10.37,2013-04-05 21:25:00,
2013-04-05 17:30:00,58.6,55.4,29.86,North,0,0.2,5.8,89,0.00,OVC,,0.02,WeatherDisplay:10.37,2013-04-05 21:30:00,
2013-04-05 17:35:00,58.8,55.6,29.85,North,0,0.0,0.0,89,0.00,-DZ,,0.02,WeatherDisplay:10.37,2013-04-05 21:35:00,
2013-04-05 17:40:00,58.8,55.3,29.86,North,0,0.5,2.3,88,0.00,-DZ,,0.02,WeatherDisplay:10.37,2013-04-05 21:40:00,
2013-04-05 17:45:00,58.8,55.3,29.86,North,0,1.1,2.8,88,0.00,-DZ,,0.02,WeatherDisplay:10.37,2013-04-05 21:45:00,
2013-04-05 17:50:00,58.8,55.3,29.86,North,0,0.0,3.5,88,0.00,-DZ,,0.02,WeatherDisplay:10.37,2013-04-05 21:50:00,
2013-04-05 17:55:00,58.8,55.3,29.86,North,0,0.1,0.0,88,0.00,-DZ,,0.02,WeatherDisplay:10.37,2013-04-05 21:55:00,
2013-04-05 18:00:00,58.8,55.3,29.87,NW,315,0.4,2.3,88,0.00,-DZ,,0.02,WeatherDisplay:10.37,2013-04-05 22:00:00,
2013-04-05 18:05:00,58.6,55.4,29.87,NW,315,1.2,4.6,89,0.00,-DZ,,0.02,WeatherDisplay:10.37,2013-04-05 22:05:00,
2013-04-05 18:10:00,58.6,55.4,29.87,NW,315,0.8,2.8,89,0.00,-DZ,,0.02,WeatherDisplay:10.37,2013-04-05 22:10:00,
2013-04-05 18:15:00,58.6,55.4,29.87,NW,315,0.5,2.3,89,0.00,-DZ,,0.02,WeatherDisplay:10.37,2013-04-05 22:15:00,
2013-04-05 18:20:00,58.1,54.9,29.88,North,0,1.8,6.9,89,0.00,OVC,,0.02,WeatherDisplay:10.37,2013-04-05 22:20:00,
2013-04-05 18:25:00,58.1,54.9,29.88,North,0,1.2,6.9,89,0.00,OVC,,0.02,WeatherDisplay:10.37,2013-04-05 22:25:00,
2013-04-05 18:30:00,57.7,54.8,29.89,West,270,1.2,4.6,90,0.00,OVC,,0.02,WeatherDisplay:10.37,2013-04-05 22:30:00,
2013-04-05 18:35:00,57.6,54.6,29.89,North,0,1.5,4.6,90,0.00,OVC,,0.02,WeatherDisplay:10.37,2013-04-05 22:35:00,
2013-04-05 18:40:00,57.6,54.6,29.89,SW,225,2.0,5.8,90,0.00,OVC,,0.02,WeatherDisplay:10.37,2013-04-05 22:40:00,
2013-04-05 18:45:00,57.6,54.6,29.89,SW,225,1.7,5.8,90,0.00,OVC,,0.02,WeatherDisplay:10.37,2013-04-05 22:45:00,
2013-04-05 18:50:00,57.4,54.8,29.89,North,0,1.4,5.8,91,0.00,OVC,,0.02,WeatherDisplay:10.37,2013-04-05 22:50:00,
2013-04-05 18:55:00,57.0,54.4,29.89,North,0,1.7,5.8,91,0.00,OVC,,0.02,WeatherDisplay:10.37,2013-04-05 22:55:00,
2013-04-05 19:00:00,57.0,54.4,29.89,North,0,1.7,5.8,91,0.00,OVC,,0.02,WeatherDisplay:10.37,2013-04-05 23:00:00,
2013-04-05 19:05:00,56.8,54.2,29.89,North,0,0.1,1.1,91,0.00,OVC,,0.02,WeatherDisplay:10.37,2013-04-05 23:05:00,
2013-04-05 19:10:00,57.0,54.4,29.90,North,0,0.8,4.6,91,0.00,OVC,,0.02,WeatherDisplay:10.37,2013-04-05 23:10:00,
2013-04-05 19:15:00,57.0,54.4,29.90,North,0,0.6,4.6,91,0.00,OVC,,0.02,WeatherDisplay:10.37,2013-04-05 23:15:00,
2013-04-05 19:20:00,56.8,54.2,29.90,North,0,2.0,5.8,91,0.00,BKN,,0.02,WeatherDisplay:10.37,2013-04-05 23:20:00,
2013-04-05 19:25:00,56.8,54.2,29.90,North,0,2.0,5.8,91,0.00,BKN,,0.02,WeatherDisplay:10.37,2013-04-05 23:25:00,
2013-04-05 19:30:00,57.0,54.1,29.90,North,0,0.4,5.8,90,0.00,BKN,,0.02,WeatherDisplay:10.37,2013-04-05 23:30:00,
2013-04-05 19:35:00,57.0,54.1,29.90,North,0,0.4,5.8,90,0.00,BKN,,0.02,WeatherDisplay:10.37,2013-04-05 23:35:00,
2013-04-05 19:40:00,56.8,53.9,29.90,NE,45,0.1,4.6,90,0.00,BKN,,0.02,WeatherDisplay:10.37,2013-04-05 23:40:00,
2013-04-05 19:45:00,56.8,53.9,29.90,NE,45,0.1,4.6,90,0.00,BKN,,0.02,WeatherDisplay:10.37,2013-04-05 23:45:00,
2013-04-05 19:50:00,56.8,53.9,29.91,North,0,0.0,2.3,90,0.00,BKN,,0.02,WeatherDisplay:10.37,2013-04-05 23:50:00,
2013-04-05 19:55:00,56.8,53.9,29.91,North,0,0.0,0.0,90,0.00,BKN,,0.02,WeatherDisplay:10.37,2013-04-05 23:55:00,
2013-04-05 20:00:00,56.8,53.9,29.91,North,0,0.0,0.0,90,0.00,BKN,,0.02,WeatherDisplay:10.37,2013-04-06 00:00:00,
2013-04-05 20:05:00,56.8,53.9,29.92,North,0,1.7,4.6,90,0.00,BKN,,0.02,WeatherDisplay:10.37,2013-04-06 00:05:00,
2013-04-05 20:10:00,56.8,54.2,29.92,North,0,0.1,2.3,91,0.00,BKN,,0.02,WeatherDisplay:10.37,2013-04-06 00:10:00,
2013-04-05 20:15:00,56.8,54.2,29.92,North,0,0.1,2.3,91,0.00,BKN,,0.02,WeatherDisplay:10.37,2013-04-06 00:15:00,
2013-04-05 20:20:00,56.8,53.9,29.92,NE,45,1.5,4.6,90,0.00,BKN,,0.02,WeatherDisplay:10.37,2013-04-06 00:20:00,
2013-04-05 20:25:00,56.8,53.9,29.92,NE,45,1.5,4.6,90,0.00,BKN,,0.02,WeatherDisplay:10.37,2013-04-06 00:25:00,
2013-04-05 20:30:00,56.8,53.9,29.92,NW,315,0.1,1.4,90,0.00,BKN,,0.02,WeatherDisplay:10.37,2013-04-06 00:30:00,
2013-04-05 20:35:00,56.8,53.9,29.92,NW,315,0.1,1.4,90,0.00,BKN,,0.02,WeatherDisplay:10.37,2013-04-06 00:35:00,
2013-04-05 20:40:00,56.8,53.6,29.93,North,0,1.0,4.6,89,0.00,BKN,,0.02,WeatherDisplay:10.37,2013-04-06 00:40:00,
2013-04-05 20:45:00,56.8,53.6,29.93,North,0,1.0,4.6,89,0.00,BKN,,0.02,WeatherDisplay:10.37,2013-04-06 00:45:00,
2013-04-05 20:50:00,56.8,53.6,29.93,North,0,1.4,2.8,89,0.00,BKN,,0.02,WeatherDisplay:10.37,2013-04-06 00:50:00,
2013-04-05 20:55:00,56.8,53.3,29.93,North,0,1.3,5.8,88,0.00,BKN,,0.02,WeatherDisplay:10.37,2013-04-06 00:55:00,
2013-04-05 21:00:00,56.8,53.3,29.93,North,0,1.3,5.8,88,0.00,BKN,,0.02,WeatherDisplay:10.37,2013-04-06 01:00:00,
2013-04-05 21:05:00,56.5,53.6,29.94,North,0,0.0,0.0,90,0.00,BKN,,0.02,WeatherDisplay:10.37,2013-04-06 01:05:00,
2013-04-05 21:10:00,56.5,53.3,29.94,North,0,1.1,5.8,89,0.00,BKN,,0.02,WeatherDisplay:10.37,2013-04-06 01:10:00,
2013-04-05 21:15:00,56.5,53.3,29.94,North,0,1.0,5.8,89,0.00,BKN,,0.02,WeatherDisplay:10.37,2013-04-06 01:15:00,
2013-04-05 21:20:00,56.5,53.3,29.94,North,0,0.7,2.3,89,0.00,BKN,,0.02,WeatherDisplay:10.37,2013-04-06 01:20:00,
2013-04-05 21:25:00,56.3,53.1,29.95,North,0,0.2,2.3,89,0.00,BKN,,0.02,WeatherDisplay:10.37,2013-04-06 01:25:00,
2013-04-05 21:30:00,56.3,53.1,29.95,North,0,0.9,5.8,89,0.00,BKN,,0.02,WeatherDisplay:10.37,2013-04-06 01:30:00,
2013-04-05 21:36:00,56.3,53.1,29.95,North,0,0.3,2.3,89,0.00,BKN,,0.02,WeatherDisplay:10.37,2013-04-06 01:36:00,
2013-04-05 21:41:00,56.1,52.9,29.96,North,0,0.0,0.0,89,0.00,BKN,,0.02,WeatherDisplay:10.37,2013-04-06 01:41:00,
2013-04-05 21:46:00,56.1,53.2,29.96,North,0,0.0,0.0,90,0.00,BKN,,0.02,WeatherDisplay:10.37,2013-04-06 01:46:00,
2013-04-05 21:51:00,56.1,53.2,29.96,North,0,0.0,0.0,90,0.00,BKN,,0.02,WeatherDisplay:10.37,2013-04-06 01:51:00,
2013-04-05 21:57:00,56.1,53.2,29.97,North,0,0.1,2.8,90,0.00,BKN,,0.02,WeatherDisplay:10.37,2013-04-06 01:57:00,
2013-04-05 22:02:00,56.1,53.5,29.97,North,0,0.0,0.0,91,0.00,BKN,,0.02,WeatherDisplay:10.37,2013-04-06 02:02:00,
2013-04-05 22:07:00,56.3,53.7,29.97,North,0,0.0,0.0,91,0.00,BKN,,0.02,WeatherDisplay:10.37,2013-04-06 02:07:00,
2013-04-05 22:12:00,56.1,53.5,29.97,North,0,0.0,0.0,91,0.00,BKN,,0.02,WeatherDisplay:10.37,2013-04-06 02:12:00,
2013-04-05 22:17:00,56.3,53.7,29.97,North,0,0.1,2.3,91,0.00,BKN,,0.02,WeatherDisplay:10.37,2013-04-06 02:17:00,
2013-04-05 22:22:00,56.3,53.7,29.97,North,0,0.0,0.0,91,0.00,BKN,,0.02,WeatherDisplay:10.37,2013-04-06 02:22:00,
2013-04-05 22:27:00,56.3,53.7,29.98,North,0,0.0,0.0,91,0.00,BKN,,0.02,WeatherDisplay:10.37,2013-04-06 02:27:00,
2013-04-05 22:32:00,56.3,53.7,29.98,North,0,0.0,2.8,91,0.00,BKN,,0.02,WeatherDisplay:10.37,2013-04-06 02:32:00,
2013-04-05 22:37:00,56.3,53.7,29.99,North,0,0.0,0.0,91,0.00,BKN,,0.02,WeatherDisplay:10.37,2013-04-06 02:37:00,
2013-04-05 22:42:00,56.5,53.9,29.99,North,0,0.2,2.3,91,0.00,BKN,,0.02,WeatherDisplay:10.37,2013-04-06 02:42:00,
2013-04-05 22:48:00,56.5,53.6,29.99,North,0,1.6,5.8,90,0.00,BKN,,0.02,WeatherDisplay:10.37,2013-04-06 02:48:00,
2013-04-05 22:53:00,56.3,53.1,29.99,NE,45,0.4,2.3,89,0.00,BKN,,0.02,WeatherDisplay:10.37,2013-04-06 02:53:00,
2013-04-05 22:58:00,56.1,52.9,29.99,NE,45,1.0,2.3,89,0.00,BKN,,0.02,WeatherDisplay:10.37,2013-04-06 02:58:00,
2013-04-05 23:02:00,55.9,52.7,29.99,NE,45,0.0,0.0,89,0.00,BKN,,0.02,WeatherDisplay:10.37,2013-04-06 03:02:00,
2013-04-05 23:07:00,55.6,52.7,30.00,NE,45,0.0,0.0,90,0.00,BKN,,0.02,WeatherDisplay:10.37,2013-04-06 03:07:00,
2013-04-05 23:12:00,55.2,52.3,30.00,NE,45,0.1,2.3,90,0.00,BKN,,0.02,WeatherDisplay:10.37,2013-04-06 03:12:00,
2013-04-05 23:17:00,55.0,52.2,30.00,NE,45,0.0,0.0,90,0.00,BKN,,0.02,WeatherDisplay:10.37,2013-04-06 03:17:00,
2013-04-05 23:23:00,54.9,52.3,30.00,NE,45,0.0,1.1,91,0.00,BKN,,0.02,WeatherDisplay:10.37,2013-04-06 03:23:00,
2013-04-05 23:28:00,54.7,52.1,30.00,NE,45,0.1,1.1,91,0.00,BKN,,0.02,WeatherDisplay:10.37,2013-04-06 03:28:00,
2013-04-05 23:33:00,54.5,51.9,30.00,NE,45,0.0,0.0,91,0.00,BKN,,0.02,WeatherDisplay:10.37,2013-04-06 03:33:00,
2013-04-05 23:38:00,54.3,52.0,30.00,NE,45,0.0,0.0,92,0.00,BKN,,0.02,WeatherDisplay:10.37,2013-04-06 03:38:00,
2013-04-05 23:43:00,54.1,51.9,30.00,NE,45,0.0,0.0,92,0.00,BKN,,0.02,WeatherDisplay:10.37,2013-04-06 03:43:00,
2013-04-05 23:48:00,54.0,51.7,30.00,NE,45,0.0,0.0,92,0.00,BKN,,0.02,WeatherDisplay:10.37,2013-04-06 03:48:00,
2013-04-05 23:53:00,53.8,51.5,30.00,NE,45,0.0,0.0,92,0.00,BKN,,0.02,WeatherDisplay:10.37,2013-04-06 03:53:00,
2013-04-05 23:58:00,53.6,51.6,30.00,NE,45,0.1,2.3,93,0.00,BKN,,0.02,WeatherDisplay:10.37,2013-04-06 03:58:00,